KBYG/BYG METAR and TAF weather

Enter ICAO airport designator
Station Type Date Time Source
KBYG METAR 2018/04/20 07:53 UTC NOAA

KBYG 200753Z AUTO 17006KT 10SM CLR 06/M01 A3003 RMK AO2 SLP148 T00611011


Station Type Date Time Source
KBYG Decoded METAR 2018/04/20 07:53 UTC NOAA

BUFFALO JOHNSON COUNTY AIRPORT , WY, United States (KBYG) 44-23N 106-43W 1497M
Apr 20, 2018 - 03:53 AM EDT / 2018.04.20 0753 UTC
Wind: from the S (170 degrees) at 7 MPH (6 KT):0
Visibility: 10 mile(s):0
Sky conditions: clear
Temperature: 43.0 F (6.1 C)
Dew Point: 30.0 F (-1.1 C)
Relative Humidity: 59%
Pressure (altimeter): 30.03 in. Hg (1016 hPa)
ob: KBYG 200753Z AUTO 17006KT 10SM CLR 06/M01 A3003 RMK AO2 SLP148 T00611011
cycle: 8

Station Type Date Time Source
KBYG TAF UTC NOAA

Error!


Example: see airport list